createdAt,value
2023-01-19T00:01:25.916Z,99706.84
2023-01-19T00:03:53.105Z,99714.91
2023-01-19T00:06:47.690Z,99720.06
2023-01-19T00:09:14.319Z,99706.28
2023-01-19T00:11:40.979Z,99708.34
2023-01-19T00:14:07.666Z,99722.78
2023-01-19T00:16:34.465Z,99713.19
2023-01-19T00:19:01.264Z,99716.72
2023-01-19T00:21:28.077Z,99711.03
2023-01-19T00:23:54.781Z,99706.00
2023-01-19T00:26:22.580Z,99724.75
2023-01-19T00:28:50.264Z,99725.63
2023-01-19T00:31:17.199Z,99731.00
2023-01-19T00:33:44.359Z,99726.78
2023-01-19T00:36:11.427Z,99718.25
2023-01-19T00:38:39.289Z,99737.47
2023-01-19T00:41:06.290Z,99732.06
2023-01-19T00:43:33.272Z,99742.69
2023-01-19T00:46:01.168Z,99740.47
2023-01-19T00:48:28.357Z,99754.94
2023-01-19T00:50:55.359Z,99748.44
2023-01-19T00:53:22.584Z,99764.41
2023-01-19T00:55:50.512Z,99760.63
2023-01-19T00:58:17.801Z,99765.34
2023-01-19T01:00:45.276Z,99780.94
2023-01-19T01:03:12.239Z,99784.25
2023-01-19T01:05:41.545Z,99790.19
2023-01-19T01:08:09.449Z,99777.56
2023-01-19T01:10:36.348Z,99770.19
2023-01-19T01:13:20.488Z,99776.28
2023-01-19T01:15:53.526Z,99780.63
2023-01-19T01:18:21.402Z,99780.94
2023-01-19T01:20:48.566Z,99785.31
2023-01-19T01:23:15.419Z,99787.38
2023-01-19T01:25:42.646Z,99793.63
2023-01-19T01:28:10.500Z,99793.16
2023-01-19T01:30:41.188Z,99802.56
2023-01-19T01:33:08.725Z,99815.91
2023-01-19T01:35:35.540Z,99818.13
2023-01-19T01:38:02.611Z,99825.72
2023-01-19T01:40:29.862Z,99831.72
2023-01-19T01:42:56.762Z,99841.72
2023-01-19T01:45:35.708Z,99848.22
2023-01-19T01:48:17.693Z,99869.53
2023-01-19T01:51:24.130Z,99858.31
2023-01-19T01:53:56.616Z,99854.38
2023-01-19T01:56:27.600Z,99841.94
2023-01-19T01:58:54.471Z,99847.94
2023-01-19T02:01:40.048Z,99842.97
2023-01-19T02:04:07.254Z,99844.59
2023-01-19T02:06:34.691Z,99844.72
2023-01-19T02:09:29.350Z,99833.72
2023-01-19T02:12:15.545Z,99833.09
2023-01-19T02:14:42.541Z,99831.66
2023-01-19T02:17:09.558Z,99831.34
2023-01-19T02:19:43.737Z,99831.72
2023-01-19T02:22:40.689Z,99823.72
2023-01-19T02:25:07.787Z,99824.63
2023-01-19T02:27:37.947Z,99833.72
2023-01-19T02:30:05.508Z,99832.56
2023-01-19T02:32:32.664Z,99828.03
2023-01-19T02:35:06.967Z,99843.31
2023-01-19T02:37:40.147Z,99839.31
2023-01-19T02:40:12.675Z,99842.69
2023-01-19T02:42:56.935Z,99835.84
2023-01-19T02:45:24.325Z,99843.13
2023-01-19T02:47:53.081Z,99846.03
2023-01-19T02:50:37.444Z,99856.94
2023-01-19T02:53:13.175Z,99854.44
2023-01-19T02:55:45.388Z,99857.66
2023-01-19T02:58:20.582Z,99860.25
2023-01-19T03:01:12.580Z,99856.22
2023-01-19T03:03:50.438Z,99863.31
2023-01-19T03:06:44.928Z,99874.47
2023-01-19T03:09:23.915Z,99871.91
2023-01-19T03:12:03.561Z,99873.53
2023-01-19T03:14:34.228Z,99882.28
2023-01-19T03:17:05.923Z,99879.94
2023-01-19T03:19:42.129Z,99883.31
2023-01-19T03:22:23.654Z,99892.06
2023-01-19T03:24:53.729Z,99889.53
2023-01-19T03:27:31.329Z,99888.06
2023-01-19T03:30:08.122Z,99891.75
2023-01-19T03:32:41.180Z,99901.56
2023-01-19T03:35:15.746Z,99896.16
2023-01-19T03:37:45.258Z,99894.81
2023-01-19T03:40:12.624Z,99908.94
2023-01-19T03:42:41.234Z,99901.50
2023-01-19T03:45:09.298Z,99902.03
2023-01-19T03:47:36.517Z,99910.59
2023-01-19T03:50:14.938Z,99910.28
2023-01-19T03:52:41.966Z,99904.19
2023-01-19T03:55:10.072Z,99904.56
2023-01-19T03:57:37.523Z,99906.94
2023-01-19T04:00:05.121Z,99909.44
2023-01-19T04:02:39.142Z,99929.16
2023-01-19T04:05:06.317Z,99940.94
2023-01-19T04:07:33.125Z,99954.06
2023-01-19T04:10:00.235Z,99948.97
2023-01-19T04:12:26.915Z,99950.66
2023-01-19T04:14:53.773Z,99955.06
2023-01-19T04:17:20.705Z,99958.75
2023-01-19T04:19:47.524Z,99954.69
2023-01-19T04:22:14.898Z,99968.47
2023-01-19T04:24:41.553Z,99974.13
2023-01-19T04:27:08.281Z,99960.47
2023-01-19T04:29:35.105Z,99956.41
2023-01-19T04:32:01.777Z,99956.25
2023-01-19T04:34:29.847Z,99963.72
2023-01-19T04:36:56.569Z,99961.75
2023-01-19T04:39:23.428Z,99972.13
2023-01-19T04:41:51.791Z,99962.50
2023-01-19T04:44:18.425Z,99976.69
2023-01-19T04:46:45.436Z,99977.53
2023-01-19T04:49:12.144Z,99975.34
2023-01-19T04:51:38.934Z,99977.72
2023-01-19T04:54:05.665Z,99984.28
2023-01-19T04:56:32.295Z,99979.91
2023-01-19T04:59:01.209Z,99987.16
2023-01-19T05:01:28.189Z,99986.13
2023-01-19T05:03:55.040Z,99995.94
2023-01-19T05:06:21.646Z,99992.53
2023-01-19T05:08:48.271Z,99987.47
2023-01-19T05:11:21.015Z,100002.78
2023-01-19T05:13:48.191Z,99988.63
2023-01-19T05:16:16.634Z,99995.88
2023-01-19T05:18:43.363Z,99996.56
2023-01-19T05:21:10.061Z,100000.25
2023-01-19T05:23:37.135Z,100006.28
2023-01-19T05:26:04.084Z,100005.59
2023-01-19T05:28:32.462Z,100011.69
2023-01-19T05:31:00.371Z,99987.44
2023-01-19T05:33:27.829Z,99988.56
2023-01-19T05:35:55.804Z,99982.13
2023-01-19T05:38:34.377Z,99984.28
2023-01-19T05:41:02.836Z,100005.94
2023-01-19T05:43:29.740Z,100011.66
2023-01-19T05:45:57.003Z,100003.00
2023-01-19T05:48:23.819Z,100005.72
2023-01-19T05:50:51.856Z,100018.16
2023-01-19T05:53:18.641Z,100019.81
2023-01-19T05:55:45.291Z,100015.94
2023-01-19T05:58:12.001Z,100015.78
2023-01-19T06:00:38.879Z,100018.47
2023-01-19T06:03:06.676Z,100024.72
2023-01-19T06:05:35.590Z,100013.63
2023-01-19T06:08:02.193Z,100023.50
2023-01-19T06:10:34.917Z,100001.88
2023-01-19T06:13:02.161Z,100000.81
2023-01-19T06:15:31.241Z,100010.09
2023-01-19T06:17:57.909Z,100024.72
2023-01-19T06:20:24.562Z,100028.94
2023-01-19T06:22:51.313Z,100018.16
2023-01-19T06:25:18.165Z,100022.72
2023-01-19T06:27:45.820Z,100015.16
2023-01-19T06:30:13.740Z,100036.66
2023-01-19T06:32:40.586Z,100056.81
2023-01-19T06:35:07.984Z,100068.22
2023-01-19T06:37:36.565Z,100083.56
2023-01-19T06:40:03.555Z,100090.06
2023-01-19T06:42:30.192Z,100086.41
2023-01-19T06:44:57.345Z,100097.84
2023-01-19T06:47:24.133Z,100064.84
2023-01-19T06:49:51.913Z,100050.66
2023-01-19T06:52:20.362Z,100060.44
2023-01-19T06:54:47.451Z,100070.84
2023-01-19T06:57:14.626Z,100058.97
2023-01-19T06:59:42.089Z,100072.06
2023-01-19T07:02:27.728Z,100042.13
2023-01-19T07:04:56.376Z,100025.25
2023-01-19T07:07:23.300Z,100047.41
2023-01-19T07:09:53.806Z,100026.56
2023-01-19T07:12:21.680Z,100028.25
2023-01-19T07:14:49.731Z,100033.78
2023-01-19T07:17:19.571Z,99974.59
2023-01-19T07:19:46.713Z,99989.84
2023-01-19T07:22:16.503Z,100016.25
2023-01-19T07:24:43.397Z,100023.31
2023-01-19T07:27:11.668Z,100040.94
2023-01-19T07:29:39.407Z,100060.47
2023-01-19T07:32:06.316Z,100064.94
2023-01-19T07:34:33.318Z,100074.34
2023-01-19T07:37:00.412Z,100080.75
2023-01-19T07:39:34.226Z,100090.19
2023-01-19T07:42:01.158Z,100098.16
2023-01-19T07:44:28.897Z,100100.88
2023-01-19T07:46:55.708Z,100112.34
2023-01-19T07:49:22.460Z,100114.88
2023-01-19T07:51:49.384Z,100124.50
2023-01-19T07:54:16.091Z,100137.97
2023-01-19T07:56:43.145Z,100145.91
2023-01-19T07:59:10.319Z,100168.31
2023-01-19T08:01:37.965Z,100200.78
2023-01-19T08:04:05.117Z,100229.97
2023-01-19T08:06:37.449Z,100252.97
2023-01-19T08:09:07.183Z,100224.06
2023-01-19T08:11:34.239Z,100241.91
2023-01-19T08:14:01.186Z,100230.97
2023-01-19T08:16:31.134Z,100225.44
2023-01-19T08:18:57.899Z,100202.22
2023-01-19T08:21:24.627Z,100199.69
2023-01-19T08:23:55.611Z,100210.28
2023-01-19T08:26:49.748Z,100228.28
2023-01-19T08:29:17.422Z,100240.44
2023-01-19T08:31:45.177Z,100238.00
2023-01-19T08:34:12.188Z,100232.47
2023-01-19T08:36:39.155Z,100263.06
2023-01-19T08:39:06.165Z,100271.88
2023-01-19T08:41:33.481Z,100274.69
2023-01-19T08:44:01.492Z,100279.19
2023-01-19T08:46:28.306Z,100287.50
2023-01-19T08:48:55.079Z,100314.88
2023-01-19T08:51:22.715Z,100300.66
2023-01-19T08:53:49.759Z,100307.19
2023-01-19T08:56:18.005Z,100284.34
2023-01-19T08:58:49.387Z,100291.25
2023-01-19T09:01:23.909Z,100294.66
2023-01-19T09:03:53.473Z,100337.91
2023-01-19T09:06:20.211Z,100366.06
2023-01-19T09:08:47.647Z,100387.84
2023-01-19T09:11:15.909Z,100412.47
2023-01-19T09:13:43.861Z,100366.75
2023-01-19T09:16:13.463Z,100351.63
2023-01-19T09:18:40.223Z,100430.50
2023-01-19T09:21:09.964Z,100522.25
2023-01-19T09:23:37.034Z,100703.19
2023-01-19T09:26:05.396Z,100448.41
2023-01-19T09:28:32.878Z,100560.63
2023-01-19T09:30:59.761Z,100625.41
2023-01-19T09:33:26.666Z,100639.09
2023-01-19T09:35:53.352Z,100723.00
2023-01-19T09:38:20.636Z,100874.06
2023-01-19T09:40:51.828Z,101013.06
2023-01-19T09:43:39.910Z,101099.81
2023-01-19T09:46:19.981Z,101123.81
2023-01-19T09:49:04.919Z,101094.66
2023-01-19T09:51:36.764Z,101119.56
2023-01-19T09:54:59.193Z,101124.00
2023-01-19T09:57:28.136Z,101091.47
2023-01-19T09:59:59.654Z,101080.97
2023-01-19T10:02:53.348Z,101051.38
2023-01-19T10:05:37.527Z,101037.16
2023-01-19T10:08:33.515Z,101019.19
2023-01-19T10:11:00.577Z,101009.78
2023-01-19T10:13:47.026Z,101024.28
2023-01-19T10:16:31.685Z,100441.72
2023-01-19T10:19:09.205Z,100958.13
2023-01-19T10:21:45.148Z,101016.75
2023-01-19T10:24:21.271Z,100459.00
2023-01-19T10:26:53.303Z,100906.03
2023-01-19T10:29:34.603Z,101009.19
2023-01-19T10:32:09.557Z,100999.69
2023-01-19T10:34:37.140Z,100997.22
2023-01-19T10:37:18.186Z,100974.34
2023-01-19T10:39:54.022Z,100990.94
2023-01-19T10:42:20.994Z,100974.66
2023-01-19T10:44:49.214Z,100968.25
2023-01-19T10:47:24.388Z,100960.66
2023-01-19T10:49:52.275Z,100932.06
2023-01-19T10:52:19.206Z,100948.53
2023-01-19T10:54:48.514Z,100931.63
2023-01-19T10:57:29.622Z,100930.06
2023-01-19T10:59:56.910Z,100916.84
2023-01-19T11:02:32.190Z,100915.53
2023-01-19T11:05:01.261Z,100919.72
2023-01-19T11:07:32.970Z,100899.03
2023-01-19T11:10:18.120Z,100900.88
2023-01-19T11:12:52.377Z,100886.59
2023-01-19T11:15:32.109Z,100884.09
2023-01-19T11:17:59.481Z,100883.03
2023-01-19T11:20:30.641Z,100409.13
2023-01-19T11:23:18.985Z,100860.34
2023-01-19T11:25:48.606Z,100853.28
2023-01-19T11:28:35.600Z,100839.25
2023-01-19T11:31:24.590Z,100434.41
2023-01-19T11:33:53.241Z,100720.41
2023-01-19T11:36:22.697Z,100414.41
2023-01-19T11:38:53.497Z,100395.13
2023-01-19T11:41:28.369Z,100410.41
2023-01-19T11:43:58.431Z,100770.06
2023-01-19T11:46:31.494Z,100694.13
2023-01-19T11:49:15.262Z,100662.16
2023-01-19T11:52:03.138Z,100628.16
2023-01-19T11:54:35.098Z,100638.59
2023-01-19T11:57:12.925Z,100417.34
2023-01-19T11:59:40.956Z,100586.91
2023-01-19T12:02:24.442Z,100409.88
2023-01-19T12:04:55.989Z,100442.16
2023-01-19T12:07:33.969Z,100518.78
2023-01-19T12:10:26.521Z,100417.91
2023-01-19T12:12:53.826Z,100461.28
2023-01-19T12:15:39.269Z,100511.94
2023-01-19T12:18:12.977Z,100488.31
2023-01-19T12:20:49.404Z,100467.22
2023-01-19T12:23:44.807Z,100439.28
2023-01-19T12:26:35.641Z,100432.22
2023-01-19T12:29:15.413Z,100403.53
2023-01-19T12:31:45.013Z,100412.91
2023-01-19T12:34:25.485Z,100411.00
2023-01-19T12:36:55.424Z,100403.81
2023-01-19T12:39:23.678Z,100406.38
2023-01-19T12:42:18.538Z,100403.66
2023-01-19T12:44:47.628Z,100400.06
2023-01-19T12:47:14.251Z,100372.91
2023-01-19T12:49:47.138Z,100402.94
2023-01-19T12:52:19.644Z,100403.09
2023-01-19T12:55:13.543Z,100414.34
2023-01-19T12:58:00.272Z,100412.16
2023-01-19T13:00:32.352Z,100404.16
2023-01-19T13:02:59.918Z,100380.84
2023-01-19T13:05:41.665Z,100375.38
2023-01-19T13:08:13.893Z,100377.84
2023-01-19T13:14:39.180Z,100399.47
2023-01-19T13:17:23.197Z,100393.50
2023-01-19T13:19:54.949Z,100385.31
2023-01-19T13:22:47.760Z,100373.53
2023-01-19T13:25:26.816Z,100376.00
2023-01-19T13:27:54.450Z,100379.88
2023-01-19T13:30:27.336Z,100399.06
2023-01-19T13:32:57.369Z,100387.19
2023-01-19T13:35:24.822Z,100382.94
2023-01-19T13:37:52.485Z,100381.81
2023-01-19T13:40:36.222Z,100381.50
2023-01-19T13:43:03.678Z,100387.97
2023-01-19T13:45:38.165Z,100395.97
2023-01-19T13:48:07.893Z,100389.19
2023-01-19T13:50:38.751Z,100398.97
2023-01-19T13:53:19.274Z,100393.50
2023-01-19T13:56:17.345Z,100395.56
2023-01-19T13:59:04.567Z,100389.63
2023-01-19T14:01:32.986Z,100386.09
2023-01-19T14:04:00.303Z,100391.53
2023-01-19T14:06:48.932Z,100388.03
2023-01-19T14:09:19.436Z,100385.75
2023-01-19T14:12:06.227Z,100395.44
2023-01-19T14:14:33.660Z,100392.44
2023-01-19T14:17:04.898Z,100400.69
2023-01-19T14:19:50.343Z,100406.22
2023-01-19T14:22:17.197Z,100407.22
2023-01-19T14:24:44.003Z,100400.69
2023-01-19T14:27:24.770Z,100400.69
2023-01-19T14:29:53.889Z,100406.00
2023-01-19T14:32:20.623Z,100403.44
2023-01-19T14:34:47.300Z,100414.25
2023-01-19T14:37:23.064Z,100409.66
2023-01-19T14:40:00.402Z,100405.16
2023-01-19T14:42:33.422Z,100406.63
2023-01-19T14:45:02.750Z,100418.28
2023-01-19T14:47:40.026Z,100430.31
2023-01-19T14:50:09.517Z,100422.94
2023-01-19T14:52:42.353Z,100428.41
2023-01-19T14:55:21.443Z,100446.63
2023-01-19T14:57:48.548Z,100449.53
2023-01-19T15:00:20.386Z,100442.28
2023-01-19T15:02:49.286Z,100428.94
2023-01-19T15:05:16.540Z,100434.78
2023-01-19T15:07:45.530Z,100433.22
2023-01-19T15:10:21.040Z,100428.03
2023-01-19T15:12:50.080Z,100423.38
2023-01-19T15:15:22.835Z,100429.81
2023-01-19T15:17:50.449Z,100424.00
2023-01-19T15:20:20.385Z,100431.06
2023-01-19T15:22:47.690Z,100434.53
2023-01-19T15:25:21.119Z,100436.53
2023-01-19T15:27:49.224Z,100443.66
2023-01-19T15:30:25.012Z,100444.22
2023-01-19T15:32:51.840Z,100447.50
2023-01-19T15:35:24.245Z,100439.72
2023-01-19T15:37:51.196Z,100440.00
2023-01-19T15:40:19.967Z,100446.38
2023-01-19T15:42:47.035Z,100454.59
2023-01-19T15:45:36.763Z,100463.00
2023-01-19T15:48:08.589Z,100447.69
2023-01-19T15:50:45.236Z,100444.84
2023-01-19T15:53:17.367Z,100425.72
2023-01-19T15:55:45.272Z,100420.75
2023-01-19T15:58:14.146Z,100419.63
2023-01-19T16:00:41.575Z,100417.50
2023-01-19T16:03:10.886Z,100431.81
2023-01-19T16:05:43.613Z,100436.91
2023-01-19T16:08:12.107Z,100448.56
2023-01-19T16:10:40.083Z,100450.38
2023-01-19T16:13:09.636Z,100446.41
2023-01-19T16:15:37.327Z,100458.16
2023-01-19T16:18:05.429Z,100455.19
2023-01-19T16:20:32.527Z,100447.81
2023-01-19T16:23:13.545Z,100448.69
2023-01-19T16:25:40.826Z,100443.16
2023-01-19T16:28:08.340Z,100469.50
2023-01-19T16:30:35.342Z,100471.22
2023-01-19T16:33:02.212Z,100466.97
2023-01-19T16:35:28.876Z,100462.84
2023-01-19T16:37:55.703Z,100457.75
2023-01-19T16:40:22.665Z,100460.56
2023-01-19T16:42:51.242Z,100476.59
2023-01-19T16:45:17.994Z,100462.84
2023-01-19T16:47:46.924Z,100462.69
2023-01-19T16:50:20.696Z,100472.03
2023-01-19T16:52:47.400Z,100472.03
2023-01-19T16:55:14.158Z,100495.00
2023-01-19T16:57:40.839Z,100482.22
2023-01-19T17:00:12.501Z,100488.72
2023-01-19T17:02:39.473Z,100486.94
2023-01-19T17:05:06.759Z,100476.84
2023-01-19T17:07:33.744Z,100484.50
2023-01-19T17:10:00.784Z,100491.00
2023-01-19T17:12:27.691Z,100472.28
2023-01-19T17:14:54.293Z,100477.69
2023-01-19T17:17:21.552Z,100479.00
2023-01-19T17:19:48.202Z,100480.38
2023-01-19T17:22:15.186Z,100480.78
2023-01-19T17:24:43.369Z,100486.31
2023-01-19T17:27:11.002Z,100485.19
2023-01-19T17:29:37.601Z,100474.72
2023-01-19T17:32:04.854Z,100498.38
2023-01-19T17:34:31.652Z,100532.31
2023-01-19T17:37:03.167Z,100529.09
2023-01-19T17:39:30.839Z,100532.50
2023-01-19T17:41:57.705Z,100540.97
2023-01-19T17:44:24.496Z,100534.31
2023-01-19T17:46:51.193Z,100528.47
2023-01-19T17:49:18.056Z,100524.38
2023-01-19T17:51:45.050Z,100530.03
2023-01-19T17:54:12.664Z,100519.00
2023-01-19T17:56:41.421Z,100517.81
2023-01-19T17:59:08.468Z,100526.88
2023-01-19T18:01:40.693Z,100531.97
2023-01-19T18:04:08.626Z,100521.03
2023-01-19T18:06:36.069Z,100530.81
2023-01-19T18:09:04.902Z,100529.38
2023-01-19T18:11:31.903Z,100543.22
2023-01-19T18:14:00.319Z,100539.84
2023-01-19T18:16:28.759Z,100523.31
2023-01-19T18:18:56.815Z,100543.13
2023-01-19T18:21:25.148Z,100552.84
2023-01-19T18:23:51.885Z,100545.31
2023-01-19T18:26:21.783Z,100554.47
2023-01-19T18:28:49.256Z,100565.31
2023-01-19T18:31:18.607Z,100559.94
2023-01-19T18:33:45.622Z,100560.19
2023-01-19T18:36:12.645Z,100572.97
2023-01-19T18:38:40.145Z,100574.16
2023-01-19T18:41:15.846Z,100569.38
2023-01-19T18:43:42.991Z,100566.56
2023-01-19T18:46:10.087Z,100577.31
2023-01-19T18:48:38.162Z,100590.63
2023-01-19T18:51:07.227Z,100592.03
2023-01-19T18:53:34.364Z,100586.06
2023-01-19T18:56:02.216Z,100585.09
2023-01-19T18:58:31.560Z,100588.75
2023-01-19T19:01:00.426Z,100565.16
2023-01-19T19:03:28.160Z,100551.06
2023-01-19T19:05:55.306Z,100547.72
2023-01-19T19:08:22.281Z,100559.31
2023-01-19T19:10:49.157Z,100555.38
2023-01-19T19:13:17.690Z,100560.50
2023-01-19T19:15:44.876Z,100578.91
2023-01-19T19:18:14.209Z,100556.28
2023-01-19T19:20:43.351Z,100568.56
2023-01-19T19:23:11.706Z,100582.72
2023-01-19T19:25:38.980Z,100610.59
2023-01-19T19:28:06.220Z,100627.88
2023-01-19T19:30:34.990Z,100657.34
2023-01-19T19:33:01.904Z,100657.47
2023-01-19T19:35:28.757Z,100653.22
2023-01-19T19:37:57.897Z,100664.97
2023-01-19T19:40:26.289Z,100657.28
2023-01-19T19:42:58.352Z,100668.19
2023-01-19T19:45:25.801Z,100671.28
2023-01-19T19:47:52.735Z,100670.75
2023-01-19T19:50:19.820Z,100683.22
2023-01-19T19:52:46.733Z,100677.25
2023-01-19T19:55:13.927Z,100679.06
2023-01-19T19:57:44.133Z,100684.28
2023-01-19T20:00:14.157Z,100700.28
2023-01-19T20:02:41.177Z,100689.81
2023-01-19T20:05:08.323Z,100697.50
2023-01-19T20:07:35.503Z,100702.94
2023-01-19T20:10:02.251Z,100702.44
2023-01-19T20:12:29.028Z,100707.69
2023-01-19T20:14:58.450Z,100716.66
2023-01-19T20:17:25.108Z,100704.13
2023-01-19T20:19:52.202Z,100706.22
2023-01-19T20:22:19.254Z,100696.72
2023-01-19T20:24:46.114Z,100700.13
2023-01-19T20:27:13.322Z,100700.41
2023-01-19T20:29:40.174Z,100699.91
2023-01-19T20:32:07.188Z,100702.31
2023-01-19T20:34:35.840Z,100712.53
2023-01-19T20:37:04.702Z,100711.19
2023-01-19T20:39:33.605Z,100714.84
2023-01-19T20:42:01.270Z,100722.03
2023-01-19T20:44:29.270Z,100722.78
2023-01-19T20:46:56.658Z,100717.19
2023-01-19T20:49:24.252Z,100715.75
2023-01-19T20:51:52.231Z,100721.88
2023-01-19T20:54:22.810Z,100722.38
2023-01-19T20:56:49.676Z,100720.16
2023-01-19T20:59:16.660Z,100727.97
2023-01-19T21:01:44.274Z,100727.50
2023-01-19T21:04:11.941Z,100728.19
2023-01-19T21:06:39.616Z,100724.75
2023-01-19T21:09:07.261Z,100730.75
2023-01-19T21:11:35.023Z,100728.66
2023-01-19T21:14:02.156Z,100738.19
2023-01-19T21:16:31.790Z,100731.44
2023-01-19T21:18:59.110Z,100726.53
2023-01-19T21:21:31.459Z,100726.28
2023-01-19T21:24:00.653Z,100739.38
2023-01-19T21:26:30.283Z,100741.69
2023-01-19T21:29:01.155Z,100743.03
2023-01-19T21:31:28.977Z,100744.28
2023-01-19T21:33:59.068Z,100751.50
2023-01-19T21:36:26.376Z,100767.97
2023-01-19T21:38:55.709Z,100777.03
2023-01-19T21:41:22.717Z,100785.84
2023-01-19T21:43:49.691Z,100778.50
2023-01-19T21:46:20.596Z,100780.91
2023-01-19T21:48:48.651Z,100780.44
2023-01-19T21:51:16.501Z,100785.81
2023-01-19T21:53:43.682Z,100779.97
2023-01-19T21:56:11.121Z,100770.91
2023-01-19T21:58:37.897Z,100790.66
2023-01-19T22:01:13.867Z,100799.94
2023-01-19T22:03:42.342Z,100789.63
2023-01-19T22:06:11.950Z,100790.22
2023-01-19T22:08:40.417Z,100789.69
2023-01-19T22:11:10.026Z,100784.91
2023-01-19T22:13:40.864Z,100788.81
2023-01-19T22:16:12.059Z,100789.75
2023-01-19T22:18:40.724Z,100798.59
2023-01-19T22:21:13.243Z,100798.22
2023-01-19T22:23:40.808Z,100804.28
2023-01-19T22:26:08.859Z,100813.78
2023-01-19T22:28:36.327Z,100806.59
2023-01-19T22:31:05.663Z,100803.44
2023-01-19T22:33:32.658Z,100813.78
2023-01-19T22:36:11.406Z,100815.66
2023-01-19T22:38:39.992Z,100816.91
2023-01-19T22:41:28.478Z,100814.88
2023-01-19T22:43:57.538Z,100821.91
2023-01-19T22:46:26.730Z,100819.25
2023-01-19T22:48:54.214Z,100816.66
2023-01-19T22:51:21.966Z,100816.00
2023-01-19T22:53:48.672Z,100814.97
2023-01-19T22:56:26.815Z,100820.63
2023-01-19T22:58:53.968Z,100819.16
2023-01-19T23:01:23.401Z,100818.59
2023-01-19T23:03:50.355Z,100823.72
2023-01-19T23:06:19.379Z,100819.69
2023-01-19T23:08:46.797Z,100820.09
2023-01-19T23:11:17.786Z,100817.75
2023-01-19T23:13:45.165Z,100824.69
2023-01-19T23:16:12.746Z,100828.66
2023-01-19T23:18:39.963Z,100831.44
2023-01-19T23:21:12.624Z,100823.97
2023-01-19T23:23:39.933Z,100830.19
2023-01-19T23:26:09.721Z,100819.47
2023-01-19T23:28:37.108Z,100817.94
2023-01-19T23:31:17.833Z,100824.81
2023-01-19T23:33:44.786Z,100814.88
2023-01-19T23:36:12.680Z,100822.38
2023-01-19T23:38:39.901Z,100828.97
2023-01-19T23:41:07.175Z,100829.31
2023-01-19T23:43:34.304Z,100832.75
2023-01-19T23:46:09.018Z,100837.78
2023-01-19T23:48:36.363Z,100833.16
2023-01-19T23:51:14.399Z,100834.84
2023-01-19T23:53:41.671Z,100828.28
2023-01-19T23:56:18.002Z,100833.44
2023-01-19T23:58:52.430Z,100827.13
